createdAt,value
2023-12-09T00:02:14.500Z,6.23
2023-12-09T00:07:18.673Z,6.26
2023-12-09T00:12:22.824Z,6.26
2023-12-09T00:17:26.985Z,6.35
2023-12-09T00:22:31.133Z,6.33
2023-12-09T00:27:35.372Z,6.40
2023-12-09T00:32:39.481Z,6.48
2023-12-09T00:37:41.721Z,6.52
2023-12-09T00:42:45.900Z,6.57
2023-12-09T00:47:50.320Z,6.63
2023-12-09T00:52:54.198Z,6.60
2023-12-09T00:57:58.334Z,6.58
2023-12-09T01:03:02.666Z,6.51
2023-12-09T01:08:06.711Z,6.49
2023-12-09T01:13:10.847Z,6.50
2023-12-09T01:18:15.198Z,6.48
2023-12-09T01:23:19.145Z,6.44
2023-12-09T01:28:23.379Z,6.41
2023-12-09T01:33:29.186Z,6.39
2023-12-09T01:38:31.673Z,6.41
2023-12-09T01:43:35.848Z,6.37
2023-12-09T01:48:40.148Z,6.28
2023-12-09T01:53:44.123Z,6.19
2023-12-09T01:58:49.885Z,6.14
2023-12-09T02:03:52.578Z,6.16
2023-12-09T02:08:56.658Z,6.17
2023-12-09T02:14:00.917Z,6.16
2023-12-09T02:19:05.077Z,6.12
2023-12-09T02:24:09.278Z,6.19
2023-12-09T02:29:13.311Z,6.18
2023-12-09T02:34:17.565Z,6.11
2023-12-09T02:39:21.649Z,6.02
2023-12-09T02:44:25.782Z,6.08
2023-12-09T02:49:30.048Z,6.05
2023-12-09T02:54:34.134Z,5.93
2023-12-09T02:59:38.270Z,5.83
2023-12-09T03:04:42.485Z,5.83
2023-12-09T03:09:46.594Z,5.83
2023-12-09T03:14:50.788Z,5.87
2023-12-09T03:19:54.945Z,5.94
2023-12-09T03:24:59.098Z,5.88
2023-12-09T03:30:03.304Z,5.87
2023-12-09T03:35:07.409Z,5.89
2023-12-09T03:40:11.584Z,5.89
2023-12-09T03:45:15.782Z,5.92
2023-12-09T03:50:19.910Z,5.93
2023-12-09T03:55:24.109Z,5.79
2023-12-09T04:00:28.310Z,5.75
2023-12-09T04:05:32.410Z,5.73
2023-12-09T04:10:36.565Z,5.67
2023-12-09T04:15:40.728Z,5.66
2023-12-09T04:20:44.932Z,5.67
2023-12-09T04:25:49.134Z,5.59
2023-12-09T04:30:53.200Z,5.67
2023-12-09T04:35:57.402Z,5.67
2023-12-09T04:41:01.544Z,5.73
2023-12-09T04:46:05.705Z,5.63
2023-12-09T04:51:09.927Z,5.57
2023-12-09T04:56:14.012Z,5.51
2023-12-09T05:01:18.319Z,5.46
2023-12-09T05:06:22.433Z,5.42
2023-12-09T05:11:26.518Z,5.39
2023-12-09T05:16:30.688Z,5.30
2023-12-09T05:21:36.412Z,5.28
2023-12-09T05:26:39.004Z,5.25
2023-12-09T05:31:43.225Z,5.29
2023-12-09T05:36:47.345Z,5.28
2023-12-09T05:41:51.475Z,5.27
2023-12-09T05:46:55.680Z,5.28
2023-12-09T05:51:59.816Z,5.26
2023-12-09T05:57:04.035Z,5.12
2023-12-09T06:02:08.165Z,5.17
2023-12-09T06:07:10.422Z,5.13
2023-12-09T06:12:14.623Z,5.07
2023-12-09T06:17:18.726Z,5.09
2023-12-09T06:22:22.914Z,5.00
2023-12-09T06:27:27.113Z,4.96
2023-12-09T06:32:31.284Z,4.98
2023-12-09T06:37:35.608Z,4.95
2023-12-09T06:42:39.614Z,4.93
2023-12-09T06:47:43.799Z,4.95
2023-12-09T06:52:47.890Z,4.99
2023-12-09T06:57:52.098Z,5.05
2023-12-09T07:02:59.615Z,5.12
2023-12-09T07:08:00.418Z,5.17
2023-12-09T07:13:04.550Z,5.19
2023-12-09T07:18:08.813Z,5.28
2023-12-09T07:23:12.863Z,5.27
2023-12-09T07:28:17.099Z,5.37
2023-12-09T07:33:21.285Z,5.41
2023-12-09T07:38:25.382Z,5.53
2023-12-09T07:43:29.577Z,5.57
2023-12-09T07:48:33.821Z,5.65
2023-12-09T07:53:37.851Z,5.64
2023-12-09T07:58:42.017Z,5.69
2023-12-09T08:03:46.284Z,5.73
2023-12-09T08:08:50.345Z,5.80
2023-12-09T08:13:54.523Z,5.89
2023-12-09T08:18:58.800Z,5.95
2023-12-09T08:24:02.867Z,6.02
2023-12-09T08:29:07.025Z,6.02
2023-12-09T08:34:11.265Z,6.05
2023-12-09T08:39:15.390Z,6.07
2023-12-09T08:44:19.505Z,6.11
2023-12-09T08:49:23.741Z,6.33
2023-12-09T08:54:27.826Z,6.42
2023-12-09T08:59:31.988Z,6.54
2023-12-09T09:04:36.185Z,6.55
2023-12-09T09:09:40.383Z,6.59
2023-12-09T09:14:44.468Z,6.61
2023-12-09T09:19:48.712Z,6.66
2023-12-09T09:24:52.820Z,6.72
2023-12-09T09:29:57.226Z,6.72
2023-12-09T09:35:01.156Z,6.74
2023-12-09T09:40:05.299Z,6.82
2023-12-09T09:45:09.591Z,7.01
2023-12-09T09:50:13.616Z,7.08
2023-12-09T09:55:17.771Z,7.17
2023-12-09T10:00:21.970Z,7.19
2023-12-09T10:05:26.091Z,7.19
2023-12-09T10:10:30.293Z,7.19
2023-12-09T10:15:34.445Z,7.22
2023-12-09T10:20:38.627Z,7.25
2023-12-09T10:25:42.770Z,7.24
2023-12-09T10:30:46.963Z,7.30
2023-12-09T10:35:51.079Z,7.30
2023-12-09T10:40:55.233Z,7.30
2023-12-09T10:45:59.399Z,7.29
2023-12-09T10:51:03.601Z,7.35
2023-12-09T10:56:07.734Z,7.39
2023-12-09T11:01:11.934Z,7.44
2023-12-09T11:06:16.073Z,7.44
2023-12-09T11:11:20.234Z,7.41
2023-12-09T11:16:24.400Z,7.49
2023-12-09T11:21:28.640Z,7.48
2023-12-09T11:26:32.715Z,7.48
2023-12-09T11:31:36.874Z,7.50
2023-12-09T11:36:39.186Z,7.48
2023-12-09T11:41:43.286Z,7.54
2023-12-09T11:46:47.468Z,7.55
2023-12-09T11:51:51.604Z,7.51
2023-12-09T11:56:55.794Z,7.46
2023-12-09T12:01:59.956Z,7.47
2023-12-09T12:07:02.189Z,7.51
2023-12-09T12:12:06.443Z,7.51
2023-12-09T12:17:11.174Z,7.52
2023-12-09T12:22:14.698Z,7.57
2023-12-09T12:27:18.959Z,7.57
2023-12-09T12:32:23.039Z,7.62
2023-12-09T12:37:27.194Z,7.62
2023-12-09T12:42:31.750Z,7.64
2023-12-09T12:47:35.529Z,7.60
2023-12-09T12:52:39.693Z,7.58
2023-12-09T12:57:43.815Z,7.65
2023-12-09T13:02:47.971Z,7.69
2023-12-09T13:07:52.194Z,7.74
2023-12-09T13:12:56.413Z,7.92
2023-12-09T13:18:00.672Z,8.07
2023-12-09T13:23:04.639Z,7.98
2023-12-09T13:28:08.951Z,7.94
2023-12-09T13:33:13.164Z,7.94
2023-12-09T13:38:17.190Z,7.91
2023-12-09T13:43:21.274Z,7.85
2023-12-09T13:48:25.582Z,7.78
2023-12-09T13:53:29.612Z,7.75
2023-12-09T13:58:33.773Z,7.70
2023-12-09T14:03:37.980Z,7.63
2023-12-09T14:08:42.126Z,7.60
2023-12-09T14:13:46.273Z,7.60
2023-12-09T14:18:50.659Z,7.48
2023-12-09T14:23:54.606Z,7.32
2023-12-09T14:28:58.766Z,7.18
2023-12-09T14:34:03.270Z,7.09
2023-12-09T14:39:07.144Z,6.99
2023-12-09T14:44:11.263Z,6.88
2023-12-09T14:49:15.563Z,6.83
2023-12-09T14:54:20.651Z,6.72
2023-12-09T14:59:23.734Z,6.66
2023-12-09T15:04:27.927Z,6.58
2023-12-09T15:14:36.258Z,6.48
2023-12-09T15:19:40.427Z,6.39
2023-12-09T15:24:44.604Z,6.32
2023-12-09T15:29:48.709Z,6.27
2023-12-09T15:34:52.915Z,6.26
2023-12-09T15:39:57.006Z,6.25
2023-12-09T15:45:01.209Z,6.19
2023-12-09T15:50:05.338Z,6.15
2023-12-09T15:55:09.480Z,6.20
2023-12-09T16:00:13.665Z,6.17
2023-12-09T16:05:17.902Z,6.15
2023-12-09T16:10:22.005Z,6.12
2023-12-09T16:15:26.160Z,6.11
2023-12-09T16:20:30.338Z,6.14
2023-12-09T16:25:34.475Z,6.20
2023-12-09T16:30:38.718Z,6.21
2023-12-09T16:35:42.828Z,6.23
2023-12-09T16:40:47.012Z,6.17
2023-12-09T16:45:51.206Z,6.18
2023-12-09T16:50:55.337Z,6.21
2023-12-09T16:55:59.458Z,6.21
2023-12-09T17:01:03.727Z,6.37
2023-12-09T17:06:07.864Z,6.35
2023-12-09T17:11:11.943Z,6.34
2023-12-09T17:16:16.139Z,6.37
2023-12-09T17:21:20.325Z,6.39
2023-12-09T17:26:24.481Z,6.47
2023-12-09T17:31:28.624Z,6.48
2023-12-09T17:36:30.905Z,6.48
2023-12-09T17:41:35.049Z,6.42
2023-12-09T17:46:39.206Z,6.42
2023-12-09T17:51:43.408Z,6.47
2023-12-09T17:56:47.531Z,6.49
2023-12-09T18:01:51.713Z,6.54
2023-12-09T18:06:55.865Z,6.59
2023-12-09T18:12:00.063Z,6.55
2023-12-09T18:17:04.201Z,6.51
2023-12-09T18:22:08.381Z,6.52
2023-12-09T18:27:12.511Z,6.54
2023-12-09T18:32:16.812Z,6.56
2023-12-09T18:37:20.824Z,6.63
2023-12-09T18:42:25.282Z,6.66
2023-12-09T18:47:29.260Z,6.71
2023-12-09T18:52:33.334Z,6.77
2023-12-09T18:57:37.647Z,6.84
2023-12-09T19:02:41.724Z,6.94
2023-12-09T19:07:45.815Z,7.01
2023-12-09T19:12:50.089Z,7.04
2023-12-09T19:17:54.187Z,7.01
2023-12-09T19:22:58.287Z,7.07
2023-12-09T19:28:02.502Z,7.17
2023-12-09T19:33:06.765Z,7.23
2023-12-09T19:38:10.812Z,7.28
2023-12-09T19:43:14.989Z,7.45
2023-12-09T19:48:19.294Z,7.52
2023-12-09T19:53:23.259Z,7.57
2023-12-09T19:58:27.448Z,7.67
2023-12-09T20:03:31.734Z,7.76
2023-12-09T20:08:35.760Z,7.91
2023-12-09T20:13:39.958Z,7.96
2023-12-09T20:18:44.188Z,7.98
2023-12-09T20:23:48.288Z,8.21
2023-12-09T20:28:52.425Z,8.32
2023-12-09T20:33:56.758Z,8.34
2023-12-09T20:39:00.770Z,8.39
2023-12-09T20:44:04.909Z,8.42
2023-12-09T20:49:09.151Z,8.50
2023-12-09T20:54:13.296Z,8.49
2023-12-09T20:59:17.391Z,8.48
2023-12-09T21:04:21.699Z,8.42
2023-12-09T21:09:25.786Z,8.43
2023-12-09T21:14:29.873Z,8.44
2023-12-09T21:19:34.085Z,8.40
2023-12-09T21:24:38.321Z,8.35
2023-12-09T21:29:42.420Z,8.33
2023-12-09T21:34:46.595Z,8.34
2023-12-09T21:39:51.052Z,8.34
2023-12-09T21:45:00.037Z,8.42
2023-12-09T21:49:59.046Z,8.47
2023-12-09T21:55:03.196Z,8.51
2023-12-09T22:00:07.476Z,8.50
2023-12-09T22:05:11.586Z,8.52
2023-12-09T22:10:15.698Z,8.49
2023-12-09T22:15:19.923Z,8.43
2023-12-09T22:20:24.002Z,8.41
2023-12-09T22:25:28.158Z,8.41
2023-12-09T22:30:32.315Z,8.38
2023-12-09T22:35:36.491Z,8.31
2023-12-09T22:45:44.851Z,8.27
2023-12-09T22:50:49.612Z,8.31
2023-12-09T22:55:53.122Z,8.28
2023-12-09T23:00:57.381Z,8.29
2023-12-09T23:06:01.458Z,8.30
2023-12-09T23:11:03.802Z,8.31
2023-12-09T23:16:07.918Z,8.35
2023-12-09T23:21:12.147Z,8.40
2023-12-09T23:26:16.231Z,8.43
2023-12-09T23:31:28.644Z,8.55
2023-12-09T23:36:24.595Z,8.54
2023-12-09T23:41:28.675Z,8.52
2023-12-09T23:46:32.843Z,8.50
2023-12-09T23:51:37.103Z,8.50
2023-12-09T23:56:41.188Z,8.51
